NCAR-RAP Real-Time Weather Data

Output produced by METARs form (08 May 2021  17:20 UTC)
found at http://weather.rap.ucar.edu/surface/
 
KGEG 081653Z 23014KT 10SM FEW060 FEW090 FEW150 10/M03 A3018 RMK AO2 SLP225 T01001033
KGEG 081553Z 23012KT 10SM FEW060 FEW090 07/M03 A3018 RMK AO2 SLP228 T00671033
KGEG 081453Z 23014KT 10SM FEW060 FEW090 04/M03 A3017 RMK AO2 SLP227 T00441033 51015
KGEG 081353Z 22012KT 10SM FEW080 FEW100 SCT180 02/M04 A3016 RMK AO2 SLP221 VIRGA S ACSL NE T00221039
KGEG 081253Z 21010KT 10SM FEW095 BKN100 02/M04 A3014 RMK AO2 SLP217 VIRGA ACSL SE T00171044
KGEG 081153Z 22012KT 10SM SCT085 02/M04 A3013 RMK AO2 SLP209 T00171044 10083 20017 53010
KGEG 081053Z 22010KT 10SM FEW080 02/M04 A3011 RMK AO2 SLP203 T00221044
KGEG 080953Z 17003KT 10SM FEW080 03/M03 A3010 RMK AO2 SLP201 T00331028
KGEG 080853Z 23006KT 10SM FEW085 04/M02 A3009 RMK AO2 SLP197 T00391022 51007
KGEG 080753Z 12003KT 10SM FEW070 FEW085 SCT140 05/01 A3009 RMK AO2 SLP195 T00500006 401500050
KGEG 080653Z 06005KT 10SM FEW050 SCT070 BKN090 06/00 A3009 RMK AO2 SLP194 VIRGA T00610000
KGEG 080553Z 24013KT 10SM BKN060 OVC080 08/M03 A3007 RMK AO2 SLP185 60000 T00831033 10133 20083 51009
KGEG 080453Z 25008KT 10SM BKN055 OVC085 08/M03 A3007 RMK AO2 SLP187 T00831028